sensor_id;sensor_type;location;lat;lon;timestamp;P1;durP1;ratioP1;P2;durP2;ratioP2
76477;SDS011;65309;49.790;18.972;2023-03-12T00:03:49;4.22;;;2.75;;
76477;SDS011;65309;49.790;18.972;2023-03-12T00:08:51;3.95;;;2.17;;
76477;SDS011;65309;49.790;18.972;2023-03-12T00:13:57;8.80;;;4.43;;
76477;SDS011;65309;49.790;18.972;2023-03-12T00:24:04;4.97;;;3.58;;
76477;SDS011;65309;49.790;18.972;2023-03-12T00:34:11;6.88;;;3.67;;
76477;SDS011;65309;49.790;18.972;2023-03-12T00:39:13;10.82;;;6.63;;
76477;SDS011;65309;49.790;18.972;2023-03-12T00:44:15;4.72;;;3.15;;
76477;SDS011;65309;49.790;18.972;2023-03-12T00:49:18;6.28;;;3.85;;
76477;SDS011;65309;49.790;18.972;2023-03-12T00:54:20;7.50;;;5.25;;
76477;SDS011;65309;49.790;18.972;2023-03-12T00:59:22;8.23;;;4.75;;
76477;SDS011;65309;49.790;18.972;2023-03-12T01:04:26;3.75;;;3.35;;
76477;SDS011;65309;49.790;18.972;2023-03-12T01:09:28;9.45;;;3.95;;
76477;SDS011;65309;49.790;18.972;2023-03-12T01:14:30;10.82;;;5.78;;
76477;SDS011;65309;49.790;18.972;2023-03-12T01:19:33;12.98;;;7.25;;
76477;SDS011;65309;49.790;18.972;2023-03-12T01:24:35;4.28;;;3.50;;
76477;SDS011;65309;49.790;18.972;2023-03-12T01:29:37;4.18;;;2.83;;
76477;SDS011;65309;49.790;18.972;2023-03-12T01:34:41;8.63;;;4.38;;
76477;SDS011;65309;49.790;18.972;2023-03-12T01:39:43;4.32;;;3.08;;
76477;SDS011;65309;49.790;18.972;2023-03-12T01:44:49;4.90;;;3.60;;
76477;SDS011;65309;49.790;18.972;2023-03-12T01:49:54;7.93;;;3.75;;
76477;SDS011;65309;49.790;18.972;2023-03-12T01:54:57;8.85;;;4.03;;
76477;SDS011;65309;49.790;18.972;2023-03-12T02:00:04;5.75;;;4.20;;
76477;SDS011;65309;49.790;18.972;2023-03-12T02:05:12;4.90;;;4.05;;
76477;SDS011;65309;49.790;18.972;2023-03-12T02:15:22;5.25;;;2.22;;
76477;SDS011;65309;49.790;18.972;2023-03-12T02:20:26;5.30;;;3.72;;
76477;SDS011;65309;49.790;18.972;2023-03-12T02:25:37;4.70;;;2.45;;
76477;SDS011;65309;49.790;18.972;2023-03-12T02:30:42;4.18;;;1.92;;
76477;SDS011;65309;49.790;18.972;2023-03-12T02:35:46;6.82;;;3.50;;
76477;SDS011;65309;49.790;18.972;2023-03-12T02:40:50;4.38;;;2.33;;
76477;SDS011;65309;49.790;18.972;2023-03-12T02:45:53;2.75;;;1.88;;
76477;SDS011;65309;49.790;18.972;2023-03-12T02:50:56;9.27;;;3.70;;
76477;SDS011;65309;49.790;18.972;2023-03-12T02:55:59;2.22;;;1.92;;
76477;SDS011;65309;49.790;18.972;2023-03-12T03:01:01;2.65;;;0.90;;
76477;SDS011;65309;49.790;18.972;2023-03-12T03:06:04;2.90;;;2.50;;
76477;SDS011;65309;49.790;18.972;2023-03-12T03:11:07;0.85;;;0.80;;
76477;SDS011;65309;49.790;18.972;2023-03-12T03:16:09;2.25;;;1.75;;
76477;SDS011;65309;49.790;18.972;2023-03-12T03:21:13;3.90;;;2.65;;
76477;SDS011;65309;49.790;18.972;2023-03-12T03:26:21;1.40;;;1.25;;
76477;SDS011;65309;49.790;18.972;2023-03-12T03:31:24;1.88;;;1.45;;
76477;SDS011;65309;49.790;18.972;2023-03-12T03:36:27;4.07;;;2.35;;
76477;SDS011;65309;49.790;18.972;2023-03-12T03:41:30;2.08;;;1.88;;
76477;SDS011;65309;49.790;18.972;2023-03-12T03:51:38;7.15;;;1.83;;
76477;SDS011;65309;49.790;18.972;2023-03-12T04:01:46;2.25;;;1.98;;
76477;SDS011;65309;49.790;18.972;2023-03-12T04:06:48;2.42;;;1.73;;
76477;SDS011;65309;49.790;18.972;2023-03-12T04:11:51;3.83;;;2.00;;
76477;SDS011;65309;49.790;18.972;2023-03-12T04:16:53;4.80;;;3.03;;
76477;SDS011;65309;49.790;18.972;2023-03-12T04:21:55;2.55;;;1.15;;
76477;SDS011;65309;49.790;18.972;2023-03-12T04:26:58;1.77;;;1.27;;
76477;SDS011;65309;49.790;18.972;2023-03-12T04:32:00;1.65;;;1.48;;
76477;SDS011;65309;49.790;18.972;2023-03-12T04:37:02;1.75;;;1.10;;
76477;SDS011;65309;49.790;18.972;2023-03-12T04:42:06;6.05;;;3.13;;
76477;SDS011;65309;49.790;18.972;2023-03-12T04:47:09;2.97;;;1.95;;
76477;SDS011;65309;49.790;18.972;2023-03-12T04:52:11;2.08;;;1.85;;
76477;SDS011;65309;49.790;18.972;2023-03-12T04:57:14;2.40;;;1.75;;
76477;SDS011;65309;49.790;18.972;2023-03-12T05:02:16;2.50;;;2.08;;
76477;SDS011;65309;49.790;18.972;2023-03-12T05:07:18;1.02;;;0.68;;
76477;SDS011;65309;49.790;18.972;2023-03-12T05:12:21;0.95;;;0.70;;
76477;SDS011;65309;49.790;18.972;2023-03-12T05:17:23;2.00;;;1.63;;
76477;SDS011;65309;49.790;18.972;2023-03-12T05:22:25;2.47;;;2.05;;
76477;SDS011;65309;49.790;18.972;2023-03-12T05:27:29;2.63;;;1.13;;
76477;SDS011;65309;49.790;18.972;2023-03-12T05:32:32;1.63;;;1.00;;
76477;SDS011;65309;49.790;18.972;2023-03-12T05:37:34;1.60;;;1.38;;
76477;SDS011;65309;49.790;18.972;2023-03-12T05:42:38;3.03;;;2.08;;
76477;SDS011;65309;49.790;18.972;2023-03-12T05:47:40;2.20;;;1.65;;
76477;SDS011;65309;49.790;18.972;2023-03-12T05:52:42;1.45;;;1.35;;
76477;SDS011;65309;49.790;18.972;2023-03-12T05:57:45;6.00;;;2.10;;
76477;SDS011;65309;49.790;18.972;2023-03-12T06:02:47;1.95;;;1.25;;
76477;SDS011;65309;49.790;18.972;2023-03-12T06:07:49;3.80;;;2.30;;
76477;SDS011;65309;49.790;18.972;2023-03-12T06:12:52;3.03;;;2.20;;
76477;SDS011;65309;49.790;18.972;2023-03-12T06:17:54;5.18;;;1.08;;
76477;SDS011;65309;49.790;18.972;2023-03-12T06:22:56;2.80;;;1.85;;
76477;SDS011;65309;49.790;18.972;2023-03-12T06:28:00;4.10;;;2.20;;
76477;SDS011;65309;49.790;18.972;2023-03-12T06:33:02;2.00;;;1.00;;
76477;SDS011;65309;49.790;18.972;2023-03-12T06:38:05;0.82;;;0.75;;
76477;SDS011;65309;49.790;18.972;2023-03-12T06:43:08;0.77;;;0.60;;
76477;SDS011;65309;49.790;18.972;2023-03-12T06:48:12;1.67;;;1.10;;
76477;SDS011;65309;49.790;18.972;2023-03-12T06:53:14;2.10;;;1.20;;
76477;SDS011;65309;49.790;18.972;2023-03-12T06:58:18;2.35;;;1.15;;
76477;SDS011;65309;49.790;18.972;2023-03-12T07:03:20;4.07;;;1.77;;
76477;SDS011;65309;49.790;18.972;2023-03-12T07:08:23;4.07;;;2.05;;
76477;SDS011;65309;49.790;18.972;2023-03-12T07:13:27;6.35;;;1.98;;
76477;SDS011;65309;49.790;18.972;2023-03-12T07:18:29;2.65;;;2.10;;
76477;SDS011;65309;49.790;18.972;2023-03-12T07:23:31;2.38;;;1.50;;
76477;SDS011;65309;49.790;18.972;2023-03-12T07:28:35;0.43;;;0.43;;
76477;SDS011;65309;49.790;18.972;2023-03-12T07:33:37;1.63;;;1.23;;
76477;SDS011;65309;49.790;18.972;2023-03-12T07:38:40;2.53;;;1.98;;
76477;SDS011;65309;49.790;18.972;2023-03-12T07:43:43;0.25;;;0.25;;
76477;SDS011;65309;49.790;18.972;2023-03-12T07:48:45;1.98;;;1.02;;
76477;SDS011;65309;49.790;18.972;2023-03-12T07:53:48;1.20;;;0.90;;
76477;SDS011;65309;49.790;18.972;2023-03-12T07:58:51;0.93;;;0.75;;
76477;SDS011;65309;49.790;18.972;2023-03-12T08:03:54;0.40;;;0.30;;
76477;SDS011;65309;49.790;18.972;2023-03-12T08:08:57;4.60;;;2.03;;
76477;SDS011;65309;49.790;18.972;2023-03-12T08:14:00;3.10;;;2.28;;
76477;SDS011;65309;49.790;18.972;2023-03-12T08:19:02;1.35;;;1.02;;
76477;SDS011;65309;49.790;18.972;2023-03-12T08:24:04;1.38;;;1.05;;
76477;SDS011;65309;49.790;18.972;2023-03-12T08:29:08;0.80;;;0.38;;
76477;SDS011;65309;49.790;18.972;2023-03-12T08:34:10;1.50;;;1.20;;
76477;SDS011;65309;49.790;18.972;2023-03-12T08:39:12;2.30;;;1.35;;
76477;SDS011;65309;49.790;18.972;2023-03-12T08:44:15;0.80;;;0.73;;
76477;SDS011;65309;49.790;18.972;2023-03-12T08:49:18;2.92;;;1.25;;
76477;SDS011;65309;49.790;18.972;2023-03-12T08:54:21;0.90;;;0.82;;
76477;SDS011;65309;49.790;18.972;2023-03-12T08:59:24;1.77;;;0.88;;
76477;SDS011;65309;49.790;18.972;2023-03-12T09:04:26;2.83;;;1.38;;
76477;SDS011;65309;49.790;18.972;2023-03-12T09:09:29;3.20;;;0.98;;
76477;SDS011;65309;49.790;18.972;2023-03-12T09:14:32;5.22;;;1.92;;
76477;SDS011;65309;49.790;18.972;2023-03-12T09:19:54;2.17;;;1.50;;
76477;SDS011;65309;49.790;18.972;2023-03-12T09:24:57;1.25;;;0.98;;
76477;SDS011;65309;49.790;18.972;2023-03-12T09:30:00;2.00;;;0.82;;
76477;SDS011;65309;49.790;18.972;2023-03-12T09:35:04;0.73;;;0.60;;
76477;SDS011;65309;49.790;18.972;2023-03-12T09:40:10;2.15;;;1.40;;
76477;SDS011;65309;49.790;18.972;2023-03-12T09:45:19;2.50;;;1.27;;
76477;SDS011;65309;49.790;18.972;2023-03-12T09:50:24;1.95;;;1.30;;
76477;SDS011;65309;49.790;18.972;2023-03-12T09:55:31;2.15;;;1.33;;
76477;SDS011;65309;49.790;18.972;2023-03-12T10:00:38;2.70;;;1.10;;
76477;SDS011;65309;49.790;18.972;2023-03-12T10:05:42;2.85;;;1.67;;
76477;SDS011;65309;49.790;18.972;2023-03-12T10:10:51;1.27;;;0.85;;
76477;SDS011;65309;49.790;18.972;2023-03-12T10:16:00;0.90;;;0.68;;
76477;SDS011;65309;49.790;18.972;2023-03-12T10:21:10;1.42;;;0.60;;
76477;SDS011;65309;49.790;18.972;2023-03-12T10:26:21;1.92;;;0.95;;
76477;SDS011;65309;49.790;18.972;2023-03-12T10:31:28;5.25;;;0.82;;
76477;SDS011;65309;49.790;18.972;2023-03-12T10:36:35;3.38;;;1.17;;
76477;SDS011;65309;49.790;18.972;2023-03-12T10:41:40;2.80;;;1.23;;
76477;SDS011;65309;49.790;18.972;2023-03-12T10:46:56;2.53;;;1.80;;
76477;SDS011;65309;49.790;18.972;2023-03-12T10:52:03;1.60;;;0.88;;
76477;SDS011;65309;49.790;18.972;2023-03-12T10:57:07;1.60;;;1.02;;
76477;SDS011;65309;49.790;18.972;2023-03-12T11:02:24;2.85;;;1.38;;
76477;SDS011;65309;49.790;18.972;2023-03-12T11:07:31;1.13;;;0.88;;
76477;SDS011;65309;49.790;18.972;2023-03-12T11:12:34;3.60;;;1.63;;
76477;SDS011;65309;49.790;18.972;2023-03-12T11:22:41;5.03;;;2.08;;
76477;SDS011;65309;49.790;18.972;2023-03-12T11:27:44;1.63;;;1.20;;
76477;SDS011;65309;49.790;18.972;2023-03-12T11:32:51;2.47;;;1.30;;
76477;SDS011;65309;49.790;18.972;2023-03-12T11:37:55;6.40;;;1.80;;
76477;SDS011;65309;49.790;18.972;2023-03-12T11:43:07;1.25;;;0.88;;
76477;SDS011;65309;49.790;18.972;2023-03-12T11:48:44;0.98;;;0.88;;
76477;SDS011;65309;49.790;18.972;2023-03-12T11:53:58;4.30;;;3.25;;
76477;SDS011;65309;49.790;18.972;2023-03-12T11:59:38;2.63;;;1.65;;
76477;SDS011;65309;49.790;18.972;2023-03-12T12:04:57;1.00;;;0.90;;
76477;SDS011;65309;49.790;18.972;2023-03-12T12:10:16;2.17;;;1.23;;
76477;SDS011;65309;49.790;18.972;2023-03-12T12:15:27;2.75;;;1.40;;
76477;SDS011;65309;49.790;18.972;2023-03-12T12:20:40;3.45;;;1.80;;
76477;SDS011;65309;49.790;18.972;2023-03-12T12:25:52;3.35;;;1.25;;
76477;SDS011;65309;49.790;18.972;2023-03-12T12:31:11;0.63;;;0.63;;
76477;SDS011;65309;49.790;18.972;2023-03-12T12:36:26;2.42;;;1.35;;
76477;SDS011;65309;49.790;18.972;2023-03-12T12:41:33;3.55;;;1.35;;
76477;SDS011;65309;49.790;18.972;2023-03-12T12:46:40;1.65;;;1.27;;
76477;SDS011;65309;49.790;18.972;2023-03-12T12:51:47;2.65;;;1.30;;
76477;SDS011;65309;49.790;18.972;2023-03-12T12:56:55;2.55;;;0.80;;
76477;SDS011;65309;49.790;18.972;2023-03-12T13:02:10;0.90;;;0.73;;
76477;SDS011;65309;49.790;18.972;2023-03-12T13:07:32;6.07;;;1.73;;
76477;SDS011;65309;49.790;18.972;2023-03-12T13:12:35;3.80;;;1.25;;
76477;SDS011;65309;49.790;18.972;2023-03-12T13:23:10;2.40;;;2.13;;
76477;SDS011;65309;49.790;18.972;2023-03-12T13:28:27;4.53;;;2.17;;
76477;SDS011;65309;49.790;18.972;2023-03-12T13:33:38;1.58;;;1.17;;
76477;SDS011;65309;49.790;18.972;2023-03-12T13:38:52;2.83;;;1.83;;
76477;SDS011;65309;49.790;18.972;2023-03-12T13:43:59;2.53;;;1.73;;
76477;SDS011;65309;49.790;18.972;2023-03-12T13:49:21;3.13;;;2.20;;
76477;SDS011;65309;49.790;18.972;2023-03-12T13:54:27;3.20;;;1.67;;
76477;SDS011;65309;49.790;18.972;2023-03-12T13:59:33;2.67;;;1.95;;
76477;SDS011;65309;49.790;18.972;2023-03-12T14:04:37;4.05;;;2.28;;
76477;SDS011;65309;49.790;18.972;2023-03-12T14:09:44;3.10;;;1.85;;
76477;SDS011;65309;49.790;18.972;2023-03-12T14:15:04;2.83;;;2.30;;
76477;SDS011;65309;49.790;18.972;2023-03-12T14:20:15;2.05;;;1.30;;
76477;SDS011;65309;49.790;18.972;2023-03-12T14:25:24;3.80;;;2.47;;
76477;SDS011;65309;49.790;18.972;2023-03-12T14:30:38;5.05;;;2.55;;
76477;SDS011;65309;49.790;18.972;2023-03-12T14:35:45;2.10;;;1.52;;
76477;SDS011;65309;49.790;18.972;2023-03-12T14:40:54;1.73;;;1.38;;
76477;SDS011;65309;49.790;18.972;2023-03-12T14:46:02;6.90;;;3.35;;
76477;SDS011;65309;49.790;18.972;2023-03-12T14:51:06;2.67;;;1.88;;
76477;SDS011;65309;49.790;18.972;2023-03-12T14:56:12;2.58;;;1.60;;
76477;SDS011;65309;49.790;18.972;2023-03-12T15:01:16;4.13;;;2.30;;
76477;SDS011;65309;49.790;18.972;2023-03-12T15:06:20;5.03;;;2.33;;
76477;SDS011;65309;49.790;18.972;2023-03-12T15:11:30;3.38;;;2.40;;
76477;SDS011;65309;49.790;18.972;2023-03-12T15:16:33;4.13;;;2.10;;
76477;SDS011;65309;49.790;18.972;2023-03-12T15:21:36;5.45;;;2.72;;
76477;SDS011;65309;49.790;18.972;2023-03-12T15:26:40;5.03;;;2.33;;
76477;SDS011;65309;49.790;18.972;2023-03-12T15:31:44;2.72;;;1.95;;
76477;SDS011;65309;49.790;18.972;2023-03-12T15:36:47;5.97;;;3.22;;
76477;SDS011;65309;49.790;18.972;2023-03-12T15:41:52;5.90;;;3.08;;
76477;SDS011;65309;49.790;18.972;2023-03-12T15:46:55;7.10;;;2.97;;
76477;SDS011;65309;49.790;18.972;2023-03-12T15:52:25;4.85;;;2.38;;
76477;SDS011;65309;49.790;18.972;2023-03-12T15:57:31;5.35;;;3.40;;
76477;SDS011;65309;49.790;18.972;2023-03-12T16:02:35;3.47;;;1.75;;
76477;SDS011;65309;49.790;18.972;2023-03-12T16:07:38;2.35;;;1.50;;
76477;SDS011;65309;49.790;18.972;2023-03-12T16:12:42;3.35;;;1.50;;
76477;SDS011;65309;49.790;18.972;2023-03-12T16:17:45;3.38;;;1.52;;
76477;SDS011;65309;49.790;18.972;2023-03-12T16:22:47;1.75;;;1.27;;
76477;SDS011;65309;49.790;18.972;2023-03-12T16:27:51;2.85;;;1.30;;
76477;SDS011;65309;49.790;18.972;2023-03-12T16:32:56;1.98;;;0.93;;
76477;SDS011;65309;49.790;18.972;2023-03-12T16:37:59;1.30;;;1.20;;
76477;SDS011;65309;49.790;18.972;2023-03-12T16:43:04;4.68;;;1.40;;
76477;SDS011;65309;49.790;18.972;2023-03-12T16:48:13;1.00;;;0.90;;
76477;SDS011;65309;49.790;18.972;2023-03-12T16:53:16;0.95;;;0.82;;
76477;SDS011;65309;49.790;18.972;2023-03-12T16:58:20;2.92;;;0.98;;
76477;SDS011;65309;49.790;18.972;2023-03-12T17:03:26;3.58;;;1.77;;
76477;SDS011;65309;49.790;18.972;2023-03-12T17:08:32;2.17;;;1.40;;
76477;SDS011;65309;49.790;18.972;2023-03-12T17:13:37;1.48;;;1.13;;
76477;SDS011;65309;49.790;18.972;2023-03-12T17:18:39;2.72;;;1.70;;
76477;SDS011;65309;49.790;18.972;2023-03-12T17:23:42;3.33;;;1.40;;
76477;SDS011;65309;49.790;18.972;2023-03-12T17:28:48;2.03;;;1.30;;
76477;SDS011;65309;49.790;18.972;2023-03-12T17:33:50;2.83;;;1.08;;
76477;SDS011;65309;49.790;18.972;2023-03-12T17:38:52;0.85;;;0.82;;
76477;SDS011;65309;49.790;18.972;2023-03-12T17:43:56;2.78;;;1.90;;
76477;SDS011;65309;49.790;18.972;2023-03-12T17:49:02;1.55;;;1.30;;
76477;SDS011;65309;49.790;18.972;2023-03-12T17:54:04;1.30;;;0.88;;
76477;SDS011;65309;49.790;18.972;2023-03-12T17:59:07;3.15;;;1.58;;
76477;SDS011;65309;49.790;18.972;2023-03-12T18:04:11;2.90;;;2.05;;
76477;SDS011;65309;49.790;18.972;2023-03-12T18:09:13;3.58;;;2.35;;
76477;SDS011;65309;49.790;18.972;2023-03-12T18:14:17;3.20;;;1.70;;
76477;SDS011;65309;49.790;18.972;2023-03-12T18:19:23;3.17;;;2.03;;
76477;SDS011;65309;49.790;18.972;2023-03-12T18:24:27;1.58;;;1.33;;
76477;SDS011;65309;49.790;18.972;2023-03-12T18:29:31;2.25;;;1.70;;
76477;SDS011;65309;49.790;18.972;2023-03-12T18:34:35;2.22;;;1.40;;
76477;SDS011;65309;49.790;18.972;2023-03-12T18:39:39;2.28;;;1.38;;
76477;SDS011;65309;49.790;18.972;2023-03-12T18:44:42;2.58;;;1.88;;
76477;SDS011;65309;49.790;18.972;2023-03-12T18:49:45;3.53;;;0.90;;
76477;SDS011;65309;49.790;18.972;2023-03-12T18:54:47;0.98;;;0.45;;
76477;SDS011;65309;49.790;18.972;2023-03-12T18:59:50;0.80;;;0.77;;
76477;SDS011;65309;49.790;18.972;2023-03-12T19:04:52;2.85;;;1.65;;
76477;SDS011;65309;49.790;18.972;2023-03-12T19:09:57;2.42;;;1.63;;
76477;SDS011;65309;49.790;18.972;2023-03-12T19:15:00;2.63;;;1.40;;
76477;SDS011;65309;49.790;18.972;2023-03-12T19:20:02;1.75;;;1.23;;
76477;SDS011;65309;49.790;18.972;2023-03-12T19:25:06;1.95;;;1.45;;
76477;SDS011;65309;49.790;18.972;2023-03-12T19:30:11;1.85;;;1.25;;
76477;SDS011;65309;49.790;18.972;2023-03-12T19:35:14;2.13;;;1.77;;
76477;SDS011;65309;49.790;18.972;2023-03-12T19:40:16;2.22;;;1.50;;
76477;SDS011;65309;49.790;18.972;2023-03-12T19:45:20;3.28;;;2.15;;
76477;SDS011;65309;49.790;18.972;2023-03-12T19:50:24;2.47;;;1.77;;
76477;SDS011;65309;49.790;18.972;2023-03-12T19:55:26;1.92;;;1.60;;
76477;SDS011;65309;49.790;18.972;2023-03-12T20:00:29;2.63;;;2.05;;
76477;SDS011;65309;49.790;18.972;2023-03-12T20:10:34;1.67;;;1.25;;
76477;SDS011;65309;49.790;18.972;2023-03-12T20:15:37;1.55;;;1.02;;
76477;SDS011;65309;49.790;18.972;2023-03-12T20:20:41;1.95;;;1.20;;
76477;SDS011;65309;49.790;18.972;2023-03-12T20:25:46;7.00;;;3.05;;
76477;SDS011;65309;49.790;18.972;2023-03-12T20:30:49;2.28;;;1.83;;
76477;SDS011;65309;49.790;18.972;2023-03-12T20:35:52;3.95;;;2.58;;
76477;SDS011;65309;49.790;18.972;2023-03-12T20:40:56;2.08;;;1.02;;
76477;SDS011;65309;49.790;18.972;2023-03-12T20:46:00;3.38;;;2.08;;
76477;SDS011;65309;49.790;18.972;2023-03-12T20:51:02;3.38;;;1.35;;
76477;SDS011;65309;49.790;18.972;2023-03-12T20:56:04;5.47;;;2.05;;
76477;SDS011;65309;49.790;18.972;2023-03-12T21:01:09;3.95;;;1.77;;
76477;SDS011;65309;49.790;18.972;2023-03-12T21:06:11;3.90;;;1.65;;
76477;SDS011;65309;49.790;18.972;2023-03-12T21:11:13;2.53;;;1.92;;
76477;SDS011;65309;49.790;18.972;2023-03-12T21:16:17;3.20;;;1.35;;
76477;SDS011;65309;49.790;18.972;2023-03-12T21:21:19;2.63;;;1.83;;
76477;SDS011;65309;49.790;18.972;2023-03-12T21:26:21;1.67;;;1.23;;
76477;SDS011;65309;49.790;18.972;2023-03-12T21:31:24;3.00;;;1.58;;
76477;SDS011;65309;49.790;18.972;2023-03-12T21:36:27;3.70;;;2.03;;
76477;SDS011;65309;49.790;18.972;2023-03-12T21:41:29;3.30;;;1.73;;
76477;SDS011;65309;49.790;18.972;2023-03-12T21:46:33;2.10;;;1.77;;
76477;SDS011;65309;49.790;18.972;2023-03-12T21:56:40;4.07;;;1.38;;
76477;SDS011;65309;49.790;18.972;2023-03-12T22:01:43;1.60;;;1.10;;
76477;SDS011;65309;49.790;18.972;2023-03-12T22:06:45;3.35;;;1.90;;
76477;SDS011;65309;49.790;18.972;2023-03-12T22:11:48;1.98;;;1.73;;
76477;SDS011;65309;49.790;18.972;2023-03-12T22:16:51;1.83;;;1.48;;
76477;SDS011;65309;49.790;18.972;2023-03-12T22:21:53;3.90;;;1.48;;
76477;SDS011;65309;49.790;18.972;2023-03-12T22:26:55;5.50;;;2.75;;
76477;SDS011;65309;49.790;18.972;2023-03-12T22:31:58;3.38;;;1.85;;
76477;SDS011;65309;49.790;18.972;2023-03-12T22:37:00;2.55;;;1.63;;
76477;SDS011;65309;49.790;18.972;2023-03-12T22:42:02;4.72;;;1.98;;
76477;SDS011;65309;49.790;18.972;2023-03-12T22:47:06;3.13;;;2.13;;
76477;SDS011;65309;49.790;18.972;2023-03-12T22:52:09;3.38;;;1.90;;
76477;SDS011;65309;49.790;18.972;2023-03-12T22:57:11;2.88;;;2.03;;
76477;SDS011;65309;49.790;18.972;2023-03-12T23:02:14;4.10;;;2.63;;
76477;SDS011;65309;49.790;18.972;2023-03-12T23:07:16;1.50;;;1.20;;
76477;SDS011;65309;49.790;18.972;2023-03-12T23:12:18;5.55;;;3.13;;
76477;SDS011;65309;49.790;18.972;2023-03-12T23:17:22;3.53;;;2.47;;
76477;SDS011;65309;49.790;18.972;2023-03-12T23:22:24;3.33;;;2.15;;
76477;SDS011;65309;49.790;18.972;2023-03-12T23:27:26;3.30;;;1.90;;
76477;SDS011;65309;49.790;18.972;2023-03-12T23:32:29;4.20;;;2.00;;
76477;SDS011;65309;49.790;18.972;2023-03-12T23:37:31;2.35;;;1.80;;
76477;SDS011;65309;49.790;18.972;2023-03-12T23:42:33;1.65;;;1.38;;
76477;SDS011;65309;49.790;18.972;2023-03-12T23:47:36;2.53;;;1.70;;
76477;SDS011;65309;49.790;18.972;2023-03-12T23:52:38;2.60;;;1.70;;
76477;SDS011;65309;49.790;18.972;2023-03-12T23:57:40;3.83;;;2.13;;
